sensor_id;sensor_type;location;lat;lon;timestamp;P1;durP1;ratioP1;P2;durP2;ratioP2
3755;SDS011;1893;52.526;13.360;2022-12-18T00:01:57;70.47;;;19.40;;
3755;SDS011;1893;52.526;13.360;2022-12-18T00:04:26;57.10;;;18.25;;
3755;SDS011;1893;52.526;13.360;2022-12-18T00:06:52;51.70;;;17.85;;
3755;SDS011;1893;52.526;13.360;2022-12-18T00:09:18;47.10;;;17.30;;
3755;SDS011;1893;52.526;13.360;2022-12-18T00:11:44;56.53;;;18.80;;
3755;SDS011;1893;52.526;13.360;2022-12-18T00:14:12;60.93;;;18.03;;
3755;SDS011;1893;52.526;13.360;2022-12-18T00:16:38;54.03;;;17.02;;
3755;SDS011;1893;52.526;13.360;2022-12-18T00:19:05;52.22;;;19.13;;
3755;SDS011;1893;52.526;13.360;2022-12-18T00:21:31;77.03;;;19.83;;
3755;SDS011;1893;52.526;13.360;2022-12-18T00:23:58;60.78;;;19.13;;
3755;SDS011;1893;52.526;13.360;2022-12-18T00:26:25;57.00;;;18.73;;
3755;SDS011;1893;52.526;13.360;2022-12-18T00:28:57;51.63;;;15.80;;
3755;SDS011;1893;52.526;13.360;2022-12-18T00:31:25;67.30;;;18.95;;
3755;SDS011;1893;52.526;13.360;2022-12-18T00:33:51;86.38;;;19.35;;
3755;SDS011;1893;52.526;13.360;2022-12-18T00:36:25;48.85;;;16.38;;
3755;SDS011;1893;52.526;13.360;2022-12-18T00:38:53;52.15;;;17.15;;
3755;SDS011;1893;52.526;13.360;2022-12-18T00:41:20;56.75;;;16.75;;
3755;SDS011;1893;52.526;13.360;2022-12-18T00:44:05;46.20;;;16.13;;
3755;SDS011;1893;52.526;13.360;2022-12-18T00:46:32;49.72;;;19.83;;
3755;SDS011;1893;52.526;13.360;2022-12-18T00:48:58;58.22;;;19.00;;
3755;SDS011;1893;52.526;13.360;2022-12-18T00:51:24;51.88;;;17.27;;
3755;SDS011;1893;52.526;13.360;2022-12-18T00:53:51;65.88;;;21.08;;
3755;SDS011;1893;52.526;13.360;2022-12-18T00:56:20;58.78;;;20.23;;
3755;SDS011;1893;52.526;13.360;2022-12-18T00:58:46;59.13;;;19.02;;
3755;SDS011;1893;52.526;13.360;2022-12-18T01:01:12;66.77;;;19.80;;
3755;SDS011;1893;52.526;13.360;2022-12-18T01:03:38;69.03;;;19.97;;
3755;SDS011;1893;52.526;13.360;2022-12-18T01:06:06;54.13;;;19.93;;
3755;SDS011;1893;52.526;13.360;2022-12-18T01:08:34;49.35;;;18.38;;
3755;SDS011;1893;52.526;13.360;2022-12-18T01:11:00;55.60;;;18.10;;
3755;SDS011;1893;52.526;13.360;2022-12-18T01:13:26;57.58;;;17.85;;
3755;SDS011;1893;52.526;13.360;2022-12-18T01:15:52;51.57;;;16.53;;
3755;SDS011;1893;52.526;13.360;2022-12-18T01:18:17;60.23;;;17.97;;
3755;SDS011;1893;52.526;13.360;2022-12-18T01:20:43;49.73;;;18.80;;
3755;SDS011;1893;52.526;13.360;2022-12-18T01:23:08;50.27;;;16.67;;
3755;SDS011;1893;52.526;13.360;2022-12-18T01:25:37;50.07;;;18.27;;
3755;SDS011;1893;52.526;13.360;2022-12-18T01:28:03;58.47;;;20.63;;
3755;SDS011;1893;52.526;13.360;2022-12-18T01:30:29;48.83;;;18.60;;
3755;SDS011;1893;52.526;13.360;2022-12-18T01:32:55;57.20;;;19.57;;
3755;SDS011;1893;52.526;13.360;2022-12-18T01:35:20;63.33;;;19.93;;
3755;SDS011;1893;52.526;13.360;2022-12-18T01:37:46;64.00;;;21.47;;
3755;SDS011;1893;52.526;13.360;2022-12-18T01:40:11;60.17;;;18.17;;
3755;SDS011;1893;52.526;13.360;2022-12-18T01:42:37;57.53;;;21.00;;
3755;SDS011;1893;52.526;13.360;2022-12-18T01:50:23;51.47;;;16.17;;
3755;SDS011;1893;52.526;13.360;2022-12-18T01:55:49;57.92;;;18.35;;
3755;SDS011;1893;52.526;13.360;2022-12-18T01:58:18;54.30;;;19.48;;
3755;SDS011;1893;52.526;13.360;2022-12-18T02:00:47;53.13;;;17.25;;
3755;SDS011;1893;52.526;13.360;2022-12-18T02:03:13;63.03;;;20.40;;
3755;SDS011;1893;52.526;13.360;2022-12-18T02:08:33;60.83;;;20.23;;
3755;SDS011;1893;52.526;13.360;2022-12-18T02:11:33;55.50;;;16.38;;
3755;SDS011;1893;52.526;13.360;2022-12-18T02:14:30;59.10;;;18.60;;
3755;SDS011;1893;52.526;13.360;2022-12-18T02:17:21;60.28;;;19.75;;
3755;SDS011;1893;52.526;13.360;2022-12-18T02:22:50;57.38;;;18.75;;
3755;SDS011;1893;52.526;13.360;2022-12-18T02:27:44;67.40;;;20.93;;
3755;SDS011;1893;52.526;13.360;2022-12-18T02:30:12;65.38;;;21.30;;
3755;SDS011;1893;52.526;13.360;2022-12-18T02:32:43;59.72;;;21.02;;
3755;SDS011;1893;52.526;13.360;2022-12-18T02:35:15;58.70;;;18.15;;
3755;SDS011;1893;52.526;13.360;2022-12-18T02:37:47;65.65;;;21.05;;
3755;SDS011;1893;52.526;13.360;2022-12-18T02:40:14;58.85;;;21.17;;
3755;SDS011;1893;52.526;13.360;2022-12-18T02:42:42;46.92;;;16.73;;
3755;SDS011;1893;52.526;13.360;2022-12-18T02:45:08;57.97;;;20.07;;
3755;SDS011;1893;52.526;13.360;2022-12-18T02:47:36;60.90;;;19.55;;
3755;SDS011;1893;52.526;13.360;2022-12-18T03:00:52;59.63;;;15.82;;
3755;SDS011;1893;52.526;13.360;2022-12-18T03:03:45;45.00;;;17.70;;
3755;SDS011;1893;52.526;13.360;2022-12-18T03:08:56;66.43;;;20.77;;
3755;SDS011;1893;52.526;13.360;2022-12-18T03:11:25;63.45;;;19.48;;
3755;SDS011;1893;52.526;13.360;2022-12-18T03:14:13;55.75;;;18.45;;
3755;SDS011;1893;52.526;13.360;2022-12-18T03:16:41;68.90;;;21.38;;
3755;SDS011;1893;52.526;13.360;2022-12-18T03:19:09;68.25;;;20.75;;
3755;SDS011;1893;52.526;13.360;2022-12-18T03:21:42;70.53;;;20.88;;
3755;SDS011;1893;52.526;13.360;2022-12-18T03:24:10;64.60;;;22.02;;
3755;SDS011;1893;52.526;13.360;2022-12-18T03:26:37;70.10;;;20.20;;
3755;SDS011;1893;52.526;13.360;2022-12-18T03:29:09;66.22;;;20.38;;
3755;SDS011;1893;52.526;13.360;2022-12-18T03:31:40;64.60;;;21.48;;
3755;SDS011;1893;52.526;13.360;2022-12-18T03:34:13;83.80;;;22.58;;
3755;SDS011;1893;52.526;13.360;2022-12-18T03:36:46;56.70;;;20.25;;
3755;SDS011;1893;52.526;13.360;2022-12-18T03:39:12;55.27;;;20.30;;
3755;SDS011;1893;52.526;13.360;2022-12-18T03:42:00;56.25;;;21.05;;
3755;SDS011;1893;52.526;13.360;2022-12-18T03:49:54;61.97;;;20.38;;
3755;SDS011;1893;52.526;13.360;2022-12-18T03:52:26;74.18;;;22.58;;
3755;SDS011;1893;52.526;13.360;2022-12-18T03:54:57;72.70;;;24.30;;
3755;SDS011;1893;52.526;13.360;2022-12-18T03:57:25;81.80;;;24.58;;
3755;SDS011;1893;52.526;13.360;2022-12-18T03:59:54;82.57;;;25.20;;
3755;SDS011;1893;52.526;13.360;2022-12-18T04:02:24;76.90;;;24.25;;
3755;SDS011;1893;52.526;13.360;2022-12-18T04:04:51;85.80;;;26.93;;
3755;SDS011;1893;52.526;13.360;2022-12-18T04:07:20;75.95;;;21.70;;
3755;SDS011;1893;52.526;13.360;2022-12-18T04:09:47;78.75;;;26.55;;
3755;SDS011;1893;52.526;13.360;2022-12-18T04:12:15;75.43;;;24.23;;
3755;SDS011;1893;52.526;13.360;2022-12-18T04:14:40;86.37;;;23.83;;
3755;SDS011;1893;52.526;13.360;2022-12-18T04:17:06;81.67;;;24.27;;
3755;SDS011;1893;52.526;13.360;2022-12-18T04:19:32;86.17;;;23.10;;
3755;SDS011;1893;52.526;13.360;2022-12-18T04:21:57;89.33;;;28.57;;
3755;SDS011;1893;52.526;13.360;2022-12-18T04:24:23;71.00;;;24.60;;
3755;SDS011;1893;52.526;13.360;2022-12-18T04:26:49;91.93;;;28.10;;
3755;SDS011;1893;52.526;13.360;2022-12-18T04:29:14;88.37;;;28.17;;
3755;SDS011;1893;52.526;13.360;2022-12-18T04:31:40;83.87;;;23.53;;
3755;SDS011;1893;52.526;13.360;2022-12-18T04:34:05;76.33;;;25.97;;
3755;SDS011;1893;52.526;13.360;2022-12-18T04:36:31;106.43;;;25.13;;
3755;SDS011;1893;52.526;13.360;2022-12-18T04:38:57;68.47;;;20.77;;
3755;SDS011;1893;52.526;13.360;2022-12-18T04:41:22;88.93;;;25.50;;
3755;SDS011;1893;52.526;13.360;2022-12-18T04:43:48;74.60;;;21.83;;
3755;SDS011;1893;52.526;13.360;2022-12-18T04:46:13;70.73;;;22.80;;
3755;SDS011;1893;52.526;13.360;2022-12-18T04:48:39;87.77;;;25.77;;
3755;SDS011;1893;52.526;13.360;2022-12-18T04:51:05;73.70;;;23.90;;
3755;SDS011;1893;52.526;13.360;2022-12-18T04:53:31;83.90;;;24.30;;
3755;SDS011;1893;52.526;13.360;2022-12-18T04:56:07;81.63;;;26.10;;
3755;SDS011;1893;52.526;13.360;2022-12-18T04:58:38;88.22;;;24.98;;
3755;SDS011;1893;52.526;13.360;2022-12-18T05:01:05;83.47;;;24.52;;
3755;SDS011;1893;52.526;13.360;2022-12-18T05:03:32;80.38;;;25.45;;
3755;SDS011;1893;52.526;13.360;2022-12-18T05:05:58;83.70;;;24.83;;
3755;SDS011;1893;52.526;13.360;2022-12-18T05:08:23;78.50;;;24.83;;
3755;SDS011;1893;52.526;13.360;2022-12-18T05:10:49;90.10;;;20.07;;
3755;SDS011;1893;52.526;13.360;2022-12-18T05:13:22;61.50;;;22.20;;
3755;SDS011;1893;52.526;13.360;2022-12-18T05:15:51;68.47;;;20.40;;
3755;SDS011;1893;52.526;13.360;2022-12-18T05:18:17;70.72;;;22.20;;
3755;SDS011;1893;52.526;13.360;2022-12-18T05:20:43;65.93;;;23.40;;
3755;SDS011;1893;52.526;13.360;2022-12-18T05:23:08;76.07;;;22.70;;
3755;SDS011;1893;52.526;13.360;2022-12-18T05:25:34;76.87;;;25.00;;
3755;SDS011;1893;52.526;13.360;2022-12-18T05:27:59;66.27;;;21.40;;
3755;SDS011;1893;52.526;13.360;2022-12-18T05:30:25;83.93;;;23.07;;
3755;SDS011;1893;52.526;13.360;2022-12-18T05:32:51;86.20;;;22.00;;
3755;SDS011;1893;52.526;13.360;2022-12-18T05:35:16;55.40;;;19.93;;
3755;SDS011;1893;52.526;13.360;2022-12-18T05:37:42;67.50;;;21.10;;
3755;SDS011;1893;52.526;13.360;2022-12-18T05:40:07;65.10;;;22.20;;
3755;SDS011;1893;52.526;13.360;2022-12-18T05:42:33;77.43;;;21.65;;
3755;SDS011;1893;52.526;13.360;2022-12-18T05:44:59;79.37;;;23.17;;
3755;SDS011;1893;52.526;13.360;2022-12-18T05:47:26;59.60;;;18.53;;
3755;SDS011;1893;52.526;13.360;2022-12-18T05:49:53;60.53;;;20.33;;
3755;SDS011;1893;52.526;13.360;2022-12-18T05:52:18;72.10;;;20.10;;
3755;SDS011;1893;52.526;13.360;2022-12-18T05:54:44;66.50;;;22.43;;
3755;SDS011;1893;52.526;13.360;2022-12-18T05:57:09;65.07;;;19.17;;
3755;SDS011;1893;52.526;13.360;2022-12-18T05:59:35;77.63;;;21.20;;
3755;SDS011;1893;52.526;13.360;2022-12-18T06:02:01;70.13;;;22.23;;
3755;SDS011;1893;52.526;13.360;2022-12-18T06:04:27;68.13;;;20.83;;
3755;SDS011;1893;52.526;13.360;2022-12-18T06:06:53;68.05;;;20.92;;
3755;SDS011;1893;52.526;13.360;2022-12-18T06:09:19;68.27;;;23.10;;
3755;SDS011;1893;52.526;13.360;2022-12-18T06:11:45;76.47;;;24.00;;
3755;SDS011;1893;52.526;13.360;2022-12-18T06:14:10;65.77;;;22.13;;
3755;SDS011;1893;52.526;13.360;2022-12-18T06:16:36;67.70;;;22.13;;
3755;SDS011;1893;52.526;13.360;2022-12-18T06:19:03;83.97;;;23.63;;
3755;SDS011;1893;52.526;13.360;2022-12-18T06:21:30;71.32;;;23.02;;
3755;SDS011;1893;52.526;13.360;2022-12-18T06:23:56;70.30;;;23.65;;
3755;SDS011;1893;52.526;13.360;2022-12-18T06:26:22;74.60;;;23.80;;
3755;SDS011;1893;52.526;13.360;2022-12-18T06:28:48;89.25;;;24.77;;
3755;SDS011;1893;52.526;13.360;2022-12-18T06:31:14;60.53;;;23.07;;
3755;SDS011;1893;52.526;13.360;2022-12-18T06:33:39;70.63;;;20.70;;
3755;SDS011;1893;52.526;13.360;2022-12-18T06:36:06;63.97;;;24.37;;
3755;SDS011;1893;52.526;13.360;2022-12-18T06:38:37;60.92;;;24.02;;
3755;SDS011;1893;52.526;13.360;2022-12-18T06:41:21;76.72;;;23.70;;
3755;SDS011;1893;52.526;13.360;2022-12-18T06:43:47;64.38;;;21.90;;
3755;SDS011;1893;52.526;13.360;2022-12-18T06:46:13;71.13;;;22.03;;
3755;SDS011;1893;52.526;13.360;2022-12-18T06:48:38;65.30;;;22.87;;
3755;SDS011;1893;52.526;13.360;2022-12-18T06:51:05;73.55;;;23.63;;
3755;SDS011;1893;52.526;13.360;2022-12-18T06:53:31;81.40;;;25.13;;
3755;SDS011;1893;52.526;13.360;2022-12-18T06:56:04;70.82;;;24.98;;
3755;SDS011;1893;52.526;13.360;2022-12-18T06:58:31;75.75;;;23.08;;
3755;SDS011;1893;52.526;13.360;2022-12-18T07:01:03;62.60;;;21.30;;
3755;SDS011;1893;52.526;13.360;2022-12-18T07:03:30;60.25;;;22.00;;
3755;SDS011;1893;52.526;13.360;2022-12-18T07:05:56;72.57;;;21.97;;
3755;SDS011;1893;52.526;13.360;2022-12-18T07:08:22;71.23;;;23.07;;
3755;SDS011;1893;52.526;13.360;2022-12-18T07:10:47;75.90;;;22.07;;
3755;SDS011;1893;52.526;13.360;2022-12-18T07:13:16;54.83;;;20.23;;
3755;SDS011;1893;52.526;13.360;2022-12-18T07:15:42;72.57;;;25.00;;
3755;SDS011;1893;52.526;13.360;2022-12-18T07:18:08;57.85;;;18.27;;
3755;SDS011;1893;52.526;13.360;2022-12-18T07:20:35;65.30;;;21.63;;
3755;SDS011;1893;52.526;13.360;2022-12-18T07:23:03;67.43;;;21.60;;
3755;SDS011;1893;52.526;13.360;2022-12-18T07:25:30;60.00;;;18.27;;
3755;SDS011;1893;52.526;13.360;2022-12-18T07:27:59;61.80;;;21.27;;
3755;SDS011;1893;52.526;13.360;2022-12-18T07:30:25;79.70;;;24.37;;
3755;SDS011;1893;52.526;13.360;2022-12-18T07:32:51;75.67;;;20.27;;
3755;SDS011;1893;52.526;13.360;2022-12-18T07:35:16;76.67;;;21.90;;
3755;SDS011;1893;52.526;13.360;2022-12-18T07:37:42;73.53;;;20.40;;
3755;SDS011;1893;52.526;13.360;2022-12-18T07:40:08;61.50;;;20.23;;
3755;SDS011;1893;52.526;13.360;2022-12-18T07:42:34;71.35;;;20.10;;
3755;SDS011;1893;52.526;13.360;2022-12-18T07:45:01;70.95;;;20.48;;
3755;SDS011;1893;52.526;13.360;2022-12-18T07:47:28;61.70;;;19.20;;
3755;SDS011;1893;52.526;13.360;2022-12-18T07:49:54;66.03;;;22.92;;
3755;SDS011;1893;52.526;13.360;2022-12-18T07:52:20;56.50;;;19.67;;
3755;SDS011;1893;52.526;13.360;2022-12-18T07:54:45;61.67;;;24.80;;
3755;SDS011;1893;52.526;13.360;2022-12-18T07:57:13;84.78;;;23.63;;
3755;SDS011;1893;52.526;13.360;2022-12-18T07:59:40;71.13;;;24.23;;
3755;SDS011;1893;52.526;13.360;2022-12-18T08:02:05;80.47;;;23.27;;
3755;SDS011;1893;52.526;13.360;2022-12-18T08:04:31;69.30;;;20.77;;
3755;SDS011;1893;52.526;13.360;2022-12-18T08:06:56;67.97;;;20.50;;
3755;SDS011;1893;52.526;13.360;2022-12-18T08:09:22;73.90;;;22.27;;
3755;SDS011;1893;52.526;13.360;2022-12-18T08:11:47;66.63;;;21.53;;
3755;SDS011;1893;52.526;13.360;2022-12-18T08:14:13;70.93;;;21.17;;
3755;SDS011;1893;52.526;13.360;2022-12-18T08:16:39;65.72;;;20.00;;
3755;SDS011;1893;52.526;13.360;2022-12-18T08:19:05;87.97;;;26.13;;
3755;SDS011;1893;52.526;13.360;2022-12-18T08:21:31;61.40;;;19.93;;
3755;SDS011;1893;52.526;13.360;2022-12-18T08:23:57;62.97;;;22.30;;
3755;SDS011;1893;52.526;13.360;2022-12-18T08:26:26;80.10;;;24.40;;
3755;SDS011;1893;52.526;13.360;2022-12-18T08:28:53;77.47;;;24.92;;
3755;SDS011;1893;52.526;13.360;2022-12-18T08:31:20;73.72;;;21.85;;
3755;SDS011;1893;52.526;13.360;2022-12-18T08:33:49;63.60;;;20.58;;
3755;SDS011;1893;52.526;13.360;2022-12-18T08:36:17;57.13;;;19.67;;
3755;SDS011;1893;52.526;13.360;2022-12-18T08:38:42;52.30;;;19.00;;
3755;SDS011;1893;52.526;13.360;2022-12-18T08:41:09;53.10;;;19.90;;
3755;SDS011;1893;52.526;13.360;2022-12-18T08:43:37;62.92;;;21.88;;
3755;SDS011;1893;52.526;13.360;2022-12-18T08:46:21;65.03;;;20.35;;
3755;SDS011;1893;52.526;13.360;2022-12-18T08:48:49;60.13;;;18.58;;
3755;SDS011;1893;52.526;13.360;2022-12-18T08:51:16;50.42;;;18.75;;
3755;SDS011;1893;52.526;13.360;2022-12-18T08:53:42;59.83;;;20.63;;
3755;SDS011;1893;52.526;13.360;2022-12-18T08:56:09;62.75;;;20.17;;
3755;SDS011;1893;52.526;13.360;2022-12-18T08:58:35;70.47;;;19.65;;
3755;SDS011;1893;52.526;13.360;2022-12-18T09:01:05;70.60;;;22.15;;
3755;SDS011;1893;52.526;13.360;2022-12-18T09:03:34;65.63;;;19.70;;
3755;SDS011;1893;52.526;13.360;2022-12-18T09:06:00;56.50;;;20.13;;
3755;SDS011;1893;52.526;13.360;2022-12-18T09:08:25;52.43;;;18.53;;
3755;SDS011;1893;52.526;13.360;2022-12-18T09:10:51;72.60;;;23.38;;
3755;SDS011;1893;52.526;13.360;2022-12-18T09:13:17;53.53;;;21.97;;
3755;SDS011;1893;52.526;13.360;2022-12-18T09:15:50;51.53;;;19.15;;
3755;SDS011;1893;52.526;13.360;2022-12-18T09:18:18;55.22;;;18.77;;
3755;SDS011;1893;52.526;13.360;2022-12-18T09:20:45;43.92;;;17.08;;
3755;SDS011;1893;52.526;13.360;2022-12-18T09:23:11;52.30;;;16.65;;
3755;SDS011;1893;52.526;13.360;2022-12-18T09:25:38;53.25;;;17.17;;
3755;SDS011;1893;52.526;13.360;2022-12-18T09:28:10;51.60;;;18.38;;
3755;SDS011;1893;52.526;13.360;2022-12-18T09:30:48;58.92;;;17.27;;
3755;SDS011;1893;52.526;13.360;2022-12-18T09:33:14;52.40;;;20.23;;
3755;SDS011;1893;52.526;13.360;2022-12-18T09:35:41;53.40;;;19.05;;
3755;SDS011;1893;52.526;13.360;2022-12-18T09:38:08;48.78;;;17.88;;
3755;SDS011;1893;52.526;13.360;2022-12-18T09:43:21;54.05;;;18.10;;
3755;SDS011;1893;52.526;13.360;2022-12-18T09:45:57;43.10;;;17.38;;
3755;SDS011;1893;52.526;13.360;2022-12-18T09:48:28;52.83;;;19.73;;
3755;SDS011;1893;52.526;13.360;2022-12-18T09:51:00;52.10;;;18.42;;
3755;SDS011;1893;52.526;13.360;2022-12-18T09:53:53;53.13;;;19.35;;
3755;SDS011;1893;52.526;13.360;2022-12-18T09:59:48;47.90;;;19.45;;
3755;SDS011;1893;52.526;13.360;2022-12-18T10:04:49;61.85;;;17.88;;
3755;SDS011;1893;52.526;13.360;2022-12-18T10:10:19;45.10;;;16.00;;
3755;SDS011;1893;52.526;13.360;2022-12-18T10:13:12;47.40;;;17.13;;
3755;SDS011;1893;52.526;13.360;2022-12-18T10:16:17;49.65;;;17.33;;
3755;SDS011;1893;52.526;13.360;2022-12-18T10:21:50;61.47;;;16.85;;
3755;SDS011;1893;52.526;13.360;2022-12-18T10:24:34;44.97;;;17.88;;
3755;SDS011;1893;52.526;13.360;2022-12-18T10:27:14;63.88;;;17.45;;
3755;SDS011;1893;52.526;13.360;2022-12-18T10:29:42;65.65;;;19.30;;
3755;SDS011;1893;52.526;13.360;2022-12-18T10:32:16;56.60;;;17.38;;
3755;SDS011;1893;52.526;13.360;2022-12-18T10:34:46;45.95;;;18.33;;
3755;SDS011;1893;52.526;13.360;2022-12-18T10:37:16;59.10;;;20.50;;
3755;SDS011;1893;52.526;13.360;2022-12-18T10:39:43;64.90;;;19.40;;
3755;SDS011;1893;52.526;13.360;2022-12-18T10:42:19;60.22;;;19.35;;
3755;SDS011;1893;52.526;13.360;2022-12-18T10:44:45;55.58;;;19.77;;
3755;SDS011;1893;52.526;13.360;2022-12-18T10:47:12;67.23;;;20.80;;
3755;SDS011;1893;52.526;13.360;2022-12-18T10:49:50;57.13;;;21.38;;
3755;SDS011;1893;52.526;13.360;2022-12-18T10:52:23;51.53;;;20.17;;
3755;SDS011;1893;52.526;13.360;2022-12-18T10:54:53;55.20;;;20.48;;
3755;SDS011;1893;52.526;13.360;2022-12-18T10:59:52;60.33;;;20.88;;
3755;SDS011;1893;52.526;13.360;2022-12-18T11:02:39;62.47;;;20.52;;
3755;SDS011;1893;52.526;13.360;2022-12-18T11:05:24;62.67;;;20.30;;
3755;SDS011;1893;52.526;13.360;2022-12-18T11:07:55;60.28;;;20.95;;
3755;SDS011;1893;52.526;13.360;2022-12-18T11:10:23;71.75;;;26.35;;
3755;SDS011;1893;52.526;13.360;2022-12-18T11:12:55;71.35;;;21.00;;
3755;SDS011;1893;52.526;13.360;2022-12-18T11:15:33;57.58;;;19.10;;
3755;SDS011;1893;52.526;13.360;2022-12-18T11:17:59;46.67;;;20.00;;
3755;SDS011;1893;52.526;13.360;2022-12-18T11:20:31;64.73;;;21.20;;
3755;SDS011;1893;52.526;13.360;2022-12-18T11:23:04;60.72;;;21.50;;
3755;SDS011;1893;52.526;13.360;2022-12-18T11:25:35;51.35;;;17.33;;
3755;SDS011;1893;52.526;13.360;2022-12-18T11:30:30;51.50;;;20.25;;
3755;SDS011;1893;52.526;13.360;2022-12-18T11:33:09;56.38;;;18.83;;
3755;SDS011;1893;52.526;13.360;2022-12-18T11:35:49;56.53;;;20.50;;
3755;SDS011;1893;52.526;13.360;2022-12-18T11:38:28;64.60;;;20.13;;
3755;SDS011;1893;52.526;13.360;2022-12-18T11:41:02;58.60;;;17.98;;
3755;SDS011;1893;52.526;13.360;2022-12-18T11:43:42;58.03;;;20.48;;
3755;SDS011;1893;52.526;13.360;2022-12-18T11:46:17;60.80;;;19.60;;
3755;SDS011;1893;52.526;13.360;2022-12-18T11:48:50;52.40;;;17.77;;
3755;SDS011;1893;52.526;13.360;2022-12-18T11:51:28;48.45;;;18.40;;
3755;SDS011;1893;52.526;13.360;2022-12-18T11:54:07;49.78;;;19.17;;
3755;SDS011;1893;52.526;13.360;2022-12-18T11:56:51;41.22;;;16.60;;
3755;SDS011;1893;52.526;13.360;2022-12-18T12:04:58;48.38;;;17.88;;
3755;SDS011;1893;52.526;13.360;2022-12-18T12:18:29;42.85;;;17.60;;
3755;SDS011;1893;52.526;13.360;2022-12-18T12:30:04;45.10;;;16.73;;
3755;SDS011;1893;52.526;13.360;2022-12-18T12:32:39;50.88;;;19.85;;
3755;SDS011;1893;52.526;13.360;2022-12-18T12:38:15;45.95;;;17.95;;
3755;SDS011;1893;52.526;13.360;2022-12-18T12:40:46;42.92;;;15.75;;
3755;SDS011;1893;52.526;13.360;2022-12-18T12:45:52;44.95;;;17.38;;
3755;SDS011;1893;52.526;13.360;2022-12-18T12:51:01;48.22;;;16.67;;
3755;SDS011;1893;52.526;13.360;2022-12-18T12:53:34;49.50;;;16.65;;
3755;SDS011;1893;52.526;13.360;2022-12-18T12:56:03;43.63;;;16.55;;
3755;SDS011;1893;52.526;13.360;2022-12-18T13:01:22;36.63;;;15.35;;
3755;SDS011;1893;52.526;13.360;2022-12-18T13:07:05;48.80;;;17.95;;
3755;SDS011;1893;52.526;13.360;2022-12-18T13:10:10;40.25;;;15.80;;
3755;SDS011;1893;52.526;13.360;2022-12-18T13:12:54;40.60;;;15.98;;
3755;SDS011;1893;52.526;13.360;2022-12-18T13:20:37;40.03;;;16.17;;
3755;SDS011;1893;52.526;13.360;2022-12-18T13:25:57;45.35;;;16.75;;
3755;SDS011;1893;52.526;13.360;2022-12-18T13:30:59;42.17;;;16.10;;
3755;SDS011;1893;52.526;13.360;2022-12-18T13:36:02;63.28;;;20.25;;
3755;SDS011;1893;52.526;13.360;2022-12-18T13:38:38;46.80;;;19.70;;
3755;SDS011;1893;52.526;13.360;2022-12-18T13:41:20;46.20;;;17.42;;
3755;SDS011;1893;52.526;13.360;2022-12-18T13:43:49;45.30;;;16.67;;
3755;SDS011;1893;52.526;13.360;2022-12-18T13:48:55;43.88;;;19.23;;
3755;SDS011;1893;52.526;13.360;2022-12-18T13:51:21;37.22;;;17.58;;
3755;SDS011;1893;52.526;13.360;2022-12-18T13:56:23;46.28;;;16.05;;
3755;SDS011;1893;52.526;13.360;2022-12-18T13:59:04;44.78;;;19.90;;
3755;SDS011;1893;52.526;13.360;2022-12-18T14:01:45;39.95;;;16.08;;
3755;SDS011;1893;52.526;13.360;2022-12-18T14:04:26;43.03;;;18.67;;
3755;SDS011;1893;52.526;13.360;2022-12-18T14:07:17;48.53;;;19.13;;
3755;SDS011;1893;52.526;13.360;2022-12-18T14:09:43;46.03;;;16.90;;
3755;SDS011;1893;52.526;13.360;2022-12-18T14:12:17;43.83;;;19.63;;
3755;SDS011;1893;52.526;13.360;2022-12-18T14:15:02;56.53;;;19.77;;
3755;SDS011;1893;52.526;13.360;2022-12-18T14:17:28;41.40;;;18.65;;
3755;SDS011;1893;52.526;13.360;2022-12-18T14:19:56;51.50;;;18.73;;
3755;SDS011;1893;52.526;13.360;2022-12-18T14:22:25;58.67;;;21.03;;
3755;SDS011;1893;52.526;13.360;2022-12-18T14:27:41;51.60;;;20.90;;
3755;SDS011;1893;52.526;13.360;2022-12-18T14:33:01;50.90;;;21.30;;
3755;SDS011;1893;52.526;13.360;2022-12-18T14:35:28;57.58;;;22.20;;
3755;SDS011;1893;52.526;13.360;2022-12-18T14:37:59;52.07;;;21.70;;
3755;SDS011;1893;52.526;13.360;2022-12-18T14:40:35;49.13;;;21.95;;
3755;SDS011;1893;52.526;13.360;2022-12-18T14:43:01;47.17;;;20.70;;
3755;SDS011;1893;52.526;13.360;2022-12-18T14:45:40;60.70;;;22.40;;
3755;SDS011;1893;52.526;13.360;2022-12-18T14:50:36;35.45;;;17.27;;
3755;SDS011;1893;52.526;13.360;2022-12-18T14:53:03;52.72;;;19.77;;
3755;SDS011;1893;52.526;13.360;2022-12-18T14:55:29;48.37;;;18.53;;
3755;SDS011;1893;52.526;13.360;2022-12-18T14:57:54;41.33;;;19.10;;
3755;SDS011;1893;52.526;13.360;2022-12-18T15:00:22;48.00;;;21.00;;
3755;SDS011;1893;52.526;13.360;2022-12-18T15:02:52;45.17;;;20.55;;
3755;SDS011;1893;52.526;13.360;2022-12-18T15:05:29;53.75;;;19.15;;
3755;SDS011;1893;52.526;13.360;2022-12-18T15:07:57;41.85;;;19.33;;
3755;SDS011;1893;52.526;13.360;2022-12-18T15:10:26;44.40;;;18.77;;
3755;SDS011;1893;52.526;13.360;2022-12-18T15:18:05;33.13;;;14.65;;
3755;SDS011;1893;52.526;13.360;2022-12-18T15:20:41;39.17;;;18.30;;
3755;SDS011;1893;52.526;13.360;2022-12-18T15:23:33;32.38;;;14.85;;
3755;SDS011;1893;52.526;13.360;2022-12-18T15:26:10;47.08;;;18.20;;
3755;SDS011;1893;52.526;13.360;2022-12-18T15:28:58;33.60;;;17.15;;
3755;SDS011;1893;52.526;13.360;2022-12-18T15:31:29;37.50;;;14.52;;
3755;SDS011;1893;52.526;13.360;2022-12-18T15:36:21;36.37;;;16.20;;
3755;SDS011;1893;52.526;13.360;2022-12-18T15:38:48;39.20;;;17.02;;
3755;SDS011;1893;52.526;13.360;2022-12-18T15:41:16;36.28;;;15.90;;
3755;SDS011;1893;52.526;13.360;2022-12-18T15:43:44;41.28;;;18.67;;
3755;SDS011;1893;52.526;13.360;2022-12-18T15:46:17;40.90;;;17.05;;
3755;SDS011;1893;52.526;13.360;2022-12-18T15:48:48;35.20;;;17.17;;
3755;SDS011;1893;52.526;13.360;2022-12-18T15:51:22;33.60;;;15.93;;
3755;SDS011;1893;52.526;13.360;2022-12-18T15:53:58;40.90;;;16.13;;
3755;SDS011;1893;52.526;13.360;2022-12-18T15:56:26;28.85;;;13.85;;
3755;SDS011;1893;52.526;13.360;2022-12-18T15:59:11;25.35;;;13.65;;
3755;SDS011;1893;52.526;13.360;2022-12-18T16:01:43;39.85;;;14.90;;
3755;SDS011;1893;52.526;13.360;2022-12-18T16:04:11;30.98;;;14.65;;
3755;SDS011;1893;52.526;13.360;2022-12-18T16:06:38;40.15;;;15.93;;
3755;SDS011;1893;52.526;13.360;2022-12-18T16:09:04;33.53;;;16.10;;
3755;SDS011;1893;52.526;13.360;2022-12-18T16:11:30;32.97;;;14.10;;
3755;SDS011;1893;52.526;13.360;2022-12-18T16:16:41;39.92;;;14.55;;
3755;SDS011;1893;52.526;13.360;2022-12-18T16:19:07;36.37;;;17.50;;
3755;SDS011;1893;52.526;13.360;2022-12-18T16:21:32;36.73;;;16.30;;
3755;SDS011;1893;52.526;13.360;2022-12-18T16:23:58;35.23;;;16.23;;
3755;SDS011;1893;52.526;13.360;2022-12-18T16:26:23;36.47;;;17.20;;
3755;SDS011;1893;52.526;13.360;2022-12-18T16:28:49;36.10;;;17.00;;
3755;SDS011;1893;52.526;13.360;2022-12-18T16:31:15;35.60;;;17.10;;
3755;SDS011;1893;52.526;13.360;2022-12-18T16:33:40;39.43;;;18.70;;
3755;SDS011;1893;52.526;13.360;2022-12-18T16:36:06;40.27;;;18.47;;
3755;SDS011;1893;52.526;13.360;2022-12-18T16:38:33;35.80;;;17.17;;
3755;SDS011;1893;52.526;13.360;2022-12-18T16:40:58;40.50;;;17.03;;
3755;SDS011;1893;52.526;13.360;2022-12-18T16:43:42;34.28;;;16.50;;
3755;SDS011;1893;52.526;13.360;2022-12-18T16:46:08;38.63;;;18.40;;
3755;SDS011;1893;52.526;13.360;2022-12-18T16:48:34;37.07;;;17.57;;
3755;SDS011;1893;52.526;13.360;2022-12-18T16:51:03;35.23;;;17.60;;
3755;SDS011;1893;52.526;13.360;2022-12-18T16:53:29;34.80;;;16.35;;
3755;SDS011;1893;52.526;13.360;2022-12-18T16:55:56;45.50;;;17.02;;
3755;SDS011;1893;52.526;13.360;2022-12-18T16:58:22;40.93;;;18.63;;
3755;SDS011;1893;52.526;13.360;2022-12-18T17:00:48;43.87;;;18.93;;